This is the latest recevied weather packets stored in our database for station/object K7LDN-13. If no packets are shown the sender has not sent any weather packets the latest 10 day(s).
| Time | Temp. | Humidity | Pressure | Rain* | Wind** | Luminosity | Snow |
|---|---|---|---|---|---|---|---|
| 1777127843 | 8.33° C | 33% | 1014.1 hPa | 0 mm | - | 281 W/m² | - |
| 1777127539 | 7.78° C | 34% | 1014.1 hPa | 0 mm | - | 263 W/m² | - |
| 1777127235 | 8.33° C | 34% | 1014.1 hPa | 0 mm | - | 244 W/m² | - |
| 1777126932 | 6.67° C | 35% | 1014.1 hPa | 0 mm | - | 224 W/m² | - |
| 1777126628 | 7.78° C | 34% | 1014.2 hPa | 0 mm | - | 198 W/m² | - |
| 1777126324 | 7.78° C | 34% | 1014 hPa | 0 mm | - | 207 W/m² | - |
| 1777126020 | 8.33° C | 33% | 1014.1 hPa | 0 mm | - | 216 W/m² | - |
| 1777125717 | 8.89° C | 33% | 1013.8 hPa | 0 mm | - | 196 W/m² | - |
| 1777125412 | 7.22° C | 35% | 1013.9 hPa | 0 mm | - | 164 W/m² | - |
| 1777125107 | 7.78° C | 35% | 1013.9 hPa | 0 mm | - | 133 W/m² | - |
| 1777124804 | 5.56° C | 41% | 1014 hPa | 0 mm | - | 111 W/m² | - |
| 1777124499 | 5° C | 44% | 1014 hPa | 0 mm | - | 99 W/m² | - |
| 1777124196 | 3.89° C | 44% | 1013.6 hPa | 0 mm | - | 74 W/m² | - |
| 1777123893 | 3.33° C | 46% | 1013.8 hPa | 0 mm | - | 56 W/m² | - |
| 1777123589 | 2.78° C | 47% | 1013.8 hPa | 0 mm | - | 66 W/m² | - |
| 1777123285 | 2.78° C | 48% | 1013.6 hPa | 0 mm | - | 48 W/m² | - |
| 1777122982 | 2.78° C | 48% | 1013.8 hPa | 0 mm | - | 46 W/m² | - |
| 1777122678 | 2.22° C | 50% | 1013.6 hPa | 0 mm | - | 45 W/m² | - |
| 1777122373 | 1.67° C | 50% | 1013.6 hPa | 0 mm | - | 33 W/m² | - |
| 1777122070 | 1.67° C | 51% | 1013.8 hPa | 0 mm | - | 25 W/m² | - |
| 1777121766 | 1.67° C | 51% | 1014 hPa | 0 mm | - | 20 W/m² | - |
| 1777121463 | 1.11° C | 51% | 1013.8 hPa | 0 mm | - | 15 W/m² | - |
| 1777121162 | 1.11° C | 51% | 1014 hPa | 0 mm | - | 10 W/m² | - |
| 1777120861 | 1.11° C | 52% | 1013.8 hPa | 0 mm | - | 7 W/m² | - |
| 1777120556 | 1.11° C | 53% | 1013.9 hPa | 0 mm | - | 4 W/m² | - |
* Rain latest hour (hover to see other rain measurements)
** Current wind speed in m/s (hover to see current wind gust speed)